Time;durP1;ratioP1;P1;durP2;ratioP2;P2;SDS_P1;SDS_P2;PMS_P1;PMS_P2;Temp;Humidity;BMP_temperature;BMP_pressure;BME280_temperature;BME280_humidity;BME280_pressure;Samples;Min_cycle;Max_cycle;Signal;HPM_P1;HPM_P2
2023/08/21 00:00:21;;;;;;;14.30;11.00;;;;;;;;;;103583;1289;548308;-79
2023/08/21 00:03:58;;;;;;;14.90;11.10;;;;;;;;;;103665;1295;548008;-76
2023/08/21 00:07:30;;;;;;;15.20;11.70;;;;;;;;;;104036;1291;544973;-75
2023/08/21 00:11:13;;;;;;;14.80;12.90;;;;;;;;;;103607;1289;547905;-76
2023/08/21 00:14:45;;;;;;;15.50;12.60;;;;;;;;;;103797;1289;544805;-76
2023/08/21 00:18:22;;;;;;;14.70;11.70;;;;;;;;;;103592;1291;545452;-76
2023/08/21 00:22:06;;;;;;;15.40;12.80;;;;;;;;;;103438;1296;548044;-76
2023/08/21 00:25:37;;;;;;;14.40;11.70;;;;;;;;;;103850;1289;546238;-78
2023/08/21 00:29:21;;;;;;;13.00;11.50;;;;;;;;;;103493;1291;547781;-80
2023/08/21 00:32:48;;;;;;;14.50;12.20;;;;;;;;;;103795;1294;545730;-77
2023/08/21 00:36:32;;;;;;;14.30;10.60;;;;;;;;;;103487;1291;548123;-76
2023/08/21 00:40:08;;;;;;;14.80;11.90;;;;;;;;;;103820;1289;544993;-78
2023/08/21 00:43:51;;;;;;;13.50;10.60;;;;;;;;;;103520;1292;547946;-78
2023/08/21 00:47:19;;;;;;;12.40;10.50;;;;;;;;;;103925;1301;544805;-80
2023/08/21 00:51:04;;;;;;;12.20;10.10;;;;;;;;;;103725;1291;547771;-77
2023/08/21 00:54:39;;;;;;;13.70;10.90;;;;;;;;;;104060;1291;544982;-78
2023/08/21 00:58:17;;;;;;;15.40;11.50;;;;;;;;;;103745;1292;545271;-80
2023/08/21 01:01:53;;;;;;;14.50;12.00;;;;;;;;;;104125;1292;545344;-77
2023/08/21 01:05:37;;;;;;;16.80;11.30;;;;;;;;;;104405;1285;548001;-78
2023/08/21 01:09:23;;;;;;;16.70;13.20;;;;;;;;;;103500;1298;545042;-77
2023/08/21 01:13:21;;;;;;;16.30;12.80;;;;;;;;;;103651;1289;547789;-80
2023/08/21 01:16:24;;;;;;;16.80;12.30;;;;;;;;;;103824;1289;545391;-77
2023/08/21 01:19:58;;;;;;;16.30;12.60;;;;;;;;;;103815;1292;544838;-78
2023/08/21 01:23:46;;;;;;;17.70;13.60;;;;;;;;;;103886;1289;548033;-76
2023/08/21 01:27:21;;;;;;;16.70;13.30;;;;;;;;;;103704;1293;545139;-78
2023/08/21 01:31:01;;;;;;;16.20;12.70;;;;;;;;;;103635;1289;545440;-77
2023/08/21 01:34:39;;;;;;;16.90;13.00;;;;;;;;;;103996;1286;546300;-77
2023/08/21 01:38:16;;;;;;;16.30;13.70;;;;;;;;;;103610;1295;548273;-74
2023/08/21 01:41:53;;;;;;;14.90;12.70;;;;;;;;;;103830;1288;547834;-77
2023/08/21 01:45:31;;;;;;;15.90;12.80;;;;;;;;;;103566;1292;545189;-78
2023/08/21 01:49:02;;;;;;;15.90;13.20;;;;;;;;;;103836;1300;544960;-74
2023/08/21 01:52:40;;;;;;;17.60;14.60;;;;;;;;;;104527;1282;545539;-76
2023/08/21 01:56:18;;;;;;;17.50;14.80;;;;;;;;;;104046;1291;545073;-81
2023/08/21 01:59:55;;;;;;;18.70;16.50;;;;;;;;;;103852;1289;545196;-80
2023/08/21 02:03:39;;;;;;;20.90;16.70;;;;;;;;;;103529;1291;547762;-79
2023/08/21 02:07:09;;;;;;;18.00;15.30;;;;;;;;;;104009;1289;544977;-77
2023/08/21 02:10:51;;;;;;;24.40;16.00;;;;;;;;;;103923;1288;544756;-78
2023/08/21 02:14:25;;;;;;;18.70;15.00;;;;;;;;;;103986;1289;544731;-78
2023/08/21 02:18:09;;;;;;;17.70;14.60;;;;;;;;;;103664;1289;547992;-79
2023/08/21 02:21:45;;;;;;;16.10;13.60;;;;;;;;;;103721;1292;547776;-79
2023/08/21 02:25:23;;;;;;;10.90;8.00;;;;;;;;;;103720;1288;548047;-79
2023/08/21 02:29:00;;;;;;;11.20;7.30;;;;;;;;;;103633;1291;546319;-77
2023/08/21 02:32:40;;;;;;;10.30;6.90;;;;;;;;;;103741;1295;548013;-76
2023/08/21 02:36:15;;;;;;;10.00;5.70;;;;;;;;;;103824;1289;547889;-78
2023/08/21 02:39:47;;;;;;;9.30;5.00;;;;;;;;;;103761;1291;545332;-81
2023/08/21 02:43:30;;;;;;;8.50;5.20;;;;;;;;;;103685;1292;546309;-79
2023/08/21 02:47:08;;;;;;;10.60;5.40;;;;;;;;;;103495;1292;547882;-81
2023/08/21 02:50:42;;;;;;;9.60;5.20;;;;;;;;;;103513;1292;548261;-83
2023/08/21 02:54:19;;;;;;;10.30;4.70;;;;;;;;;;103673;1289;547907;-81
2023/08/21 02:58:00;;;;;;;8.20;4.30;;;;;;;;;;103579;1292;546654;-79
2023/08/21 03:01:32;;;;;;;8.40;4.60;;;;;;;;;;103652;1297;544982;-79
2023/08/21 03:05:06;;;;;;;8.60;4.70;;;;;;;;;;103699;1299;544929;-81
2023/08/21 03:08:47;;;;;;;9.20;4.40;;;;;;;;;;103737;1292;544986;-78
2023/08/21 03:12:25;;;;;;;9.30;4.50;;;;;;;;;;103795;1289;544870;-77
2023/08/21 03:26:30;;;;;;;7.80;3.90;;;;;;;;;;104676;1285;550079;-76
2023/08/21 03:29:27;;;;;;;9.40;4.40;;;;;;;;;;103662;1291;547987;-76
2023/08/21 03:33:05;;;;;;;8.10;4.20;;;;;;;;;;103668;1294;547900;-75
2023/08/21 03:36:38;;;;;;;8.70;4.40;;;;;;;;;;103779;1295;545574;-77
2023/08/21 03:40:14;;;;;;;7.40;4.40;;;;;;;;;;103726;1292;544799;-78
2023/08/21 03:43:57;;;;;;;8.30;4.70;;;;;;;;;;104022;1289;547825;-79
2023/08/21 03:47:31;;;;;;;8.80;4.30;;;;;;;;;;103502;1292;547823;-81
2023/08/21 03:51:09;;;;;;;8.20;5.00;;;;;;;;;;103604;1295;547894;-80
2023/08/21 03:54:49;;;;;;;8.30;4.60;;;;;;;;;;103769;1288;547967;-80
2023/08/21 03:58:25;;;;;;;11.10;5.20;;;;;;;;;;103630;1292;547788;-83
2023/08/21 04:02:04;;;;;;;9.20;5.60;;;;;;;;;;103449;1295;547978;-78
2023/08/21 04:05:42;;;;;;;8.90;5.30;;;;;;;;;;103460;1292;548396;-78
2023/08/21 04:09:16;;;;;;;11.80;6.20;;;;;;;;;;103348;1294;548332;-80
2023/08/21 04:12:57;;;;;;;9.80;6.20;;;;;;;;;;103636;1298;548161;-77
2023/08/21 04:16:25;;;;;;;11.20;6.60;;;;;;;;;;104025;1289;544959;-81
2023/08/21 04:20:10;;;;;;;12.50;7.70;;;;;;;;;;104235;1289;548080;-80
2023/08/21 04:23:47;;;;;;;12.60;9.00;;;;;;;;;;103611;1301;548093;-81
2023/08/21 04:27:25;;;;;;;12.00;8.70;;;;;;;;;;103647;1291;547789;-77
2023/08/21 04:31:06;;;;;;;12.80;8.80;;;;;;;;;;103563;1289;547794;-81
2023/08/21 04:34:39;;;;;;;12.60;9.40;;;;;;;;;;103663;1295;547914;-78
2023/08/21 04:38:21;;;;;;;14.40;10.30;;;;;;;;;;103888;1289;547954;-78
2023/08/21 04:41:53;;;;;;;14.50;9.70;;;;;;;;;;104189;1289;545800;-81
2023/08/21 04:45:37;;;;;;;14.00;10.30;;;;;;;;;;103683;1292;546181;-78
2023/08/21 04:49:03;;;;;;;13.60;9.60;;;;;;;;;;103785;1292;544968;-82
2023/08/21 04:52:46;;;;;;;13.20;10.60;;;;;;;;;;103698;1292;545000;-80
2023/08/21 04:56:29;;;;;;;16.00;11.60;;;;;;;;;;103805;1301;547751;-80
2023/08/21 05:00:00;;;;;;;16.90;10.80;;;;;;;;;;103726;1292;544854;-78
2023/08/21 05:03:38;;;;;;;14.20;11.60;;;;;;;;;;103808;1289;545479;-78
2023/08/21 05:07:17;;;;;;;16.00;12.00;;;;;;;;;;103445;1295;545958;-78
2023/08/21 05:10:53;;;;;;;15.00;12.10;;;;;;;;;;103781;1292;545135;-79
2023/08/21 05:14:38;;;;;;;15.20;11.90;;;;;;;;;;103271;1294;548670;-80
2023/08/21 05:18:19;;;;;;;15.90;11.80;;;;;;;;;;103616;1289;547825;-78
2023/08/21 05:21:57;;;;;;;14.40;10.80;;;;;;;;;;103473;1292;548024;-81
2023/08/21 05:25:28;;;;;;;14.80;12.60;;;;;;;;;;103772;1292;545109;-79
2023/08/21 05:29:05;;;;;;;15.80;12.80;;;;;;;;;;103758;1292;545385;-78
2023/08/21 05:32:49;;;;;;;15.40;12.30;;;;;;;;;;103624;1290;547978;-79
2023/08/21 05:36:27;;;;;;;16.60;11.80;;;;;;;;;;103746;1291;548231;-78
2023/08/21 05:40:05;;;;;;;15.60;12.90;;;;;;;;;;103517;1292;548075;-81
2023/08/21 05:43:42;;;;;;;17.20;13.20;;;;;;;;;;104091;1285;548284;-78
2023/08/21 05:47:19;;;;;;;16.60;12.50;;;;;;;;;;103555;1291;548104;-77
2023/08/21 05:50:51;;;;;;;14.60;11.80;;;;;;;;;;103914;1288;545010;-77
2023/08/21 05:54:34;;;;;;;16.50;10.60;;;;;;;;;;103668;1291;547764;-79
2023/08/21 05:58:11;;;;;;;14.10;10.10;;;;;;;;;;103485;1291;548239;-77
2023/08/21 06:01:44;;;;;;;17.00;11.70;;;;;;;;;;103853;1294;544955;-81
2023/08/21 06:05:26;;;;;;;18.10;11.60;;;;;;;;;;103431;1291;547992;-77
2023/08/21 06:08:58;;;;;;;16.00;10.60;;;;;;;;;;103766;1289;545721;-77
2023/08/21 06:12:41;;;;;;;12.50;8.60;;;;;;;;;;103755;1288;547825;-79
2023/08/21 06:16:19;;;;;;;12.40;7.90;;;;;;;;;;103650;1291;548044;-78
2023/08/21 06:19:51;;;;;;;13.70;8.70;;;;;;;;;;103994;1292;545044;-77
2023/08/21 06:23:28;;;;;;;13.20;8.40;;;;;;;;;;103792;1292;544980;-78
2023/08/21 06:27:11;;;;;;;12.40;7.50;;;;;;;;;;103945;1288;546018;-77
2023/08/21 06:30:44;;;;;;;15.60;7.10;;;;;;;;;;104039;1289;545395;-79
2023/08/21 06:34:26;;;;;;;12.20;8.40;;;;;;;;;;103718;1291;547803;-80
2023/08/21 06:37:58;;;;;;;15.40;8.70;;;;;;;;;;103984;1292;544858;-77
2023/08/21 06:41:35;;;;;;;15.60;7.40;;;;;;;;;;104068;1294;544845;-78
2023/08/21 06:45:12;;;;;;;12.50;7.90;;;;;;;;;;103825;1290;545538;-78
2023/08/21 06:48:50;;;;;;;14.80;7.90;;;;;;;;;;103788;1290;545012;-77
2023/08/21 06:52:33;;;;;;;13.30;7.90;;;;;;;;;;103687;1292;548049;-78
2023/08/21 06:56:11;;;;;;;21.20;8.80;;;;;;;;;;103538;1295;547909;-80
2023/08/21 06:59:42;;;;;;;14.00;8.30;;;;;;;;;;104254;1284;544771;-79
2023/08/21 07:03:26;;;;;;;13.50;7.80;;;;;;;;;;103656;1292;547968;-78
2023/08/21 07:07:03;;;;;;;32.30;10.90;;;;;;;;;;103490;1291;548058;-79
2023/08/21 07:10:35;;;;;;;29.30;10.00;;;;;;;;;;103788;1291;544974;-80
2023/08/21 07:14:13;;;;;;;24.20;9.80;;;;;;;;;;103806;1293;544852;-79
2023/08/21 07:17:50;;;;;;;20.40;10.70;;;;;;;;;;103796;1289;545711;-78
2023/08/21 07:21:27;;;;;;;19.60;9.70;;;;;;;;;;103878;1289;544723;-77
2023/08/21 07:25:05;;;;;;;14.00;8.80;;;;;;;;;;103816;1292;544841;-78
2023/08/21 07:28:42;;;;;;;12.40;8.30;;;;;;;;;;103731;1292;544949;-77
2023/08/21 07:32:20;;;;;;;15.30;8.90;;;;;;;;;;103758;1289;544942;-80
2023/08/21 07:36:01;;;;;;;13.00;7.80;;;;;;;;;;103810;1292;545414;-75
2023/08/21 07:39:35;;;;;;;11.80;8.10;;;;;;;;;;103780;1294;545309;-77
2023/08/21 07:43:12;;;;;;;12.10;7.10;;;;;;;;;;104305;1286;544744;-78
2023/08/21 07:46:55;;;;;;;13.90;7.20;;;;;;;;;;103687;1289;547860;-78
2023/08/21 07:50:27;;;;;;;11.90;8.10;;;;;;;;;;104035;1289;545885;-79
2023/08/21 07:54:10;;;;;;;11.30;6.90;;;;;;;;;;103592;1291;548018;-77
2023/08/21 07:57:42;;;;;;;13.50;7.10;;;;;;;;;;103737;1290;544932;-77
2023/08/21 08:01:25;;;;;;;13.80;7.20;;;;;;;;;;103679;1291;548132;-78
2023/08/21 08:05:03;;;;;;;12.70;7.30;;;;;;;;;;103633;1292;547808;-80
2023/08/21 08:08:35;;;;;;;11.50;6.60;;;;;;;;;;104108;1292;545056;-76
2023/08/21 08:12:12;;;;;;;11.40;7.50;;;;;;;;;;103725;1289;545540;-78
2023/08/21 08:15:50;;;;;;;10.60;7.00;;;;;;;;;;103957;1294;545637;-77
2023/08/21 08:19:32;;;;;;;11.90;5.90;;;;;;;;;;103241;1295;547912;-77
2023/08/21 08:23:04;;;;;;;9.60;6.30;;;;;;;;;;103731;1292;544723;-76
2023/08/21 08:26:47;;;;;;;9.60;5.50;;;;;;;;;;103665;1292;547992;-77
2023/08/21 08:30:19;;;;;;;9.40;5.50;;;;;;;;;;103709;1292;544973;-75
2023/08/21 08:33:57;;;;;;;9.50;5.70;;;;;;;;;;103792;1288;545015;-77
2023/08/21 08:37:34;;;;;;;10.20;6.40;;;;;;;;;;103731;1292;545956;-76
2023/08/21 08:41:16;;;;;;;12.40;5.80;;;;;;;;;;103739;1295;544726;-75
2023/08/21 08:44:50;;;;;;;9.10;5.70;;;;;;;;;;103851;1288;544955;-77
2023/08/21 08:48:27;;;;;;;10.80;5.10;;;;;;;;;;104143;1298;545042;-75
2023/08/21 08:52:11;;;;;;;10.30;6.10;;;;;;;;;;103593;1290;547806;-78
2023/08/21 08:55:42;;;;;;;10.70;5.70;;;;;;;;;;103830;1292;545097;-75
2023/08/21 08:59:19;;;;;;;9.90;6.70;;;;;;;;;;103828;1292;544942;-77
2023/08/21 09:02:56;;;;;;;10.60;7.10;;;;;;;;;;103742;1291;544987;-80
2023/08/21 09:06:32;;;;;;;9.20;6.50;;;;;;;;;;103873;1290;544703;-79
2023/08/21 09:10:19;;;;;;;11.30;8.00;;;;;;;;;;103806;1291;544777;-78
2023/08/21 09:13:53;;;;;;;12.50;7.90;;;;;;;;;;104050;1289;544730;-79
2023/08/21 09:17:30;;;;;;;10.70;7.90;;;;;;;;;;103981;1290;544846;-80
2023/08/21 09:21:06;;;;;;;9.80;6.60;;;;;;;;;;103660;1291;544768;-78
2023/08/21 09:25:19;;;;;;;10.50;7.40;;;;;;;;;;103465;1292;548281;-78
2023/08/21 09:28:21;;;;;;;10.10;7.40;;;;;;;;;;103916;1289;544920;-79
2023/08/21 09:32:04;;;;;;;9.80;7.70;;;;;;;;;;103563;1295;547815;-80
2023/08/21 09:35:36;;;;;;;10.90;8.40;;;;;;;;;;103694;1291;545171;-75
2023/08/21 09:39:17;;;;;;;10.20;7.60;;;;;;;;;;103745;1292;544732;-77
2023/08/21 09:42:57;;;;;;;10.70;7.80;;;;;;;;;;103539;1291;548179;-79
2023/08/21 09:46:31;;;;;;;10.70;7.60;;;;;;;;;;103592;1295;547920;-77
2023/08/21 09:50:06;;;;;;;10.90;7.50;;;;;;;;;;103756;1292;544797;-77
2023/08/21 09:53:50;;;;;;;12.00;8.00;;;;;;;;;;103615;1289;548176;-77
2023/08/21 09:57:22;;;;;;;10.70;7.40;;;;;;;;;;103849;1288;544771;-78
2023/08/21 10:01:14;;;;;;;13.00;10.10;;;;;;;;;;103613;1290;548085;-77
2023/08/21 10:04:45;;;;;;;14.20;11.10;;;;;;;;;;103589;1290;548002;-77
2023/08/21 10:08:15;;;;;;;19.80;11.30;;;;;;;;;;103731;1289;546279;-76
2023/08/21 10:11:52;;;;;;;12.90;10.30;;;;;;;;;;103480;1294;544933;-78
2023/08/21 10:15:29;;;;;;;14.00;9.20;;;;;;;;;;104034;1286;544984;-76
2023/08/21 10:19:14;;;;;;;12.00;9.00;;;;;;;;;;103592;1293;548311;-77
2023/08/21 10:22:50;;;;;;;13.40;8.90;;;;;;;;;;103726;1288;547896;-76
2023/08/21 10:26:26;;;;;;;9.40;7.50;;;;;;;;;;103727;1288;547837;-76
2023/08/21 10:30:11;;;;;;;10.70;7.50;;;;;;;;;;103599;1292;548412;-75
2023/08/21 10:33:45;;;;;;;10.60;7.80;;;;;;;;;;103596;1292;544973;-76
2023/08/21 10:37:19;;;;;;;10.70;8.30;;;;;;;;;;103337;1295;547772;-78
2023/08/21 10:41:07;;;;;;;10.00;7.70;;;;;;;;;;103889;1292;544766;-78
2023/08/21 10:44:33;;;;;;;10.20;7.60;;;;;;;;;;103630;1292;548842;-78
2023/08/21 10:48:11;;;;;;;9.30;7.20;;;;;;;;;;103617;1301;547808;-77
2023/08/21 10:51:43;;;;;;;11.40;7.90;;;;;;;;;;103733;1292;545063;-77
2023/08/21 10:55:21;;;;;;;10.90;8.00;;;;;;;;;;103736;1292;545453;-75
2023/08/21 10:59:03;;;;;;;10.70;7.90;;;;;;;;;;103536;1291;547800;-78
2023/08/21 11:02:40;;;;;;;9.30;6.00;;;;;;;;;;103809;1292;544797;-76
2023/08/21 11:06:13;;;;;;;10.10;5.60;;;;;;;;;;103692;1291;544910;-77
2023/08/21 11:10:03;;;;;;;;;;;;;;;;;;;;;
2023/08/21 11:13:28;;;;;;;10.10;5.60;;;;;;;;;;103869;1301;545109;-77
2023/08/21 11:17:05;;;;;;;9.80;6.30;;;;;;;;;;103689;1290;544706;-78
2023/08/21 11:20:43;;;;;;;9.10;5.50;;;;;;;;;;103754;1291;544811;-78
2023/08/21 11:24:21;;;;;;;9.30;5.70;;;;;;;;;;103542;1293;545669;-79
2023/08/21 11:27:58;;;;;;;85.10;64.10;;;;;;;;;;103738;1292;545864;-77
2023/08/21 11:31:35;;;;;;;41.90;35.00;;;;;;;;;;103670;1292;544906;-78
2023/08/21 11:35:12;;;;;;;12.10;7.30;;;;;;;;;;103818;1292;544869;-78
2023/08/21 11:39:00;;;;;;;9.40;6.10;;;;;;;;;;103567;1292;548003;-79
2023/08/21 11:42:33;;;;;;;10.00;6.70;;;;;;;;;;103538;1291;545995;-79
2023/08/21 11:46:05;;;;;;;9.20;6.40;;;;;;;;;;103827;1292;545005;-77
2023/08/21 11:49:52;;;;;;;16.20;8.30;;;;;;;;;;103661;1292;545915;-77
2023/08/21 11:53:32;;;;;;;9.60;6.80;;;;;;;;;;103344;1294;548131;-78
2023/08/21 11:57:04;;;;;;;9.00;6.10;;;;;;;;;;103626;1292;547916;-78
2023/08/21 12:00:35;;;;;;;10.10;6.00;;;;;;;;;;103726;1289;544989;-79
2023/08/21 12:04:15;;;;;;;10.70;6.80;;;;;;;;;;103737;1290;545363;-76
2023/08/21 12:07:50;;;;;;;10.60;7.10;;;;;;;;;;103709;1289;545977;-78
2023/08/21 12:11:37;;;;;;;12.80;7.80;;;;;;;;;;103510;1292;545380;-77
2023/08/21 12:15:05;;;;;;;10.10;7.10;;;;;;;;;;103533;1293;544981;-75
2023/08/21 12:18:42;;;;;;;9.50;6.60;;;;;;;;;;103749;1289;545110;-77
2023/08/21 12:22:20;;;;;;;9.10;6.40;;;;;;;;;;103990;1289;545602;-77
2023/08/21 12:25:57;;;;;;;10.10;6.90;;;;;;;;;;103721;1294;544739;-78
2023/08/21 12:29:35;;;;;;;10.10;6.40;;;;;;;;;;103968;1295;546040;-75
2023/08/21 12:33:12;;;;;;;10.00;6.90;;;;;;;;;;103719;1296;544760;-76
2023/08/21 12:36:50;;;;;;;9.60;7.60;;;;;;;;;;103632;1292;544820;-78
2023/08/21 12:40:32;;;;;;;10.30;8.20;;;;;;;;;;103615;1292;547945;-75
2023/08/21 12:44:08;;;;;;;11.30;7.80;;;;;;;;;;103802;1290;544776;-78
2023/08/21 12:47:42;;;;;;;9.20;7.80;;;;;;;;;;103777;1291;544645;-77
2023/08/21 12:51:19;;;;;;;10.10;7.30;;;;;;;;;;103751;1301;545011;-78
2023/08/21 12:54:56;;;;;;;11.80;8.30;;;;;;;;;;103614;1291;544949;-78
2023/08/21 12:58:34;;;;;;;12.60;7.20;;;;;;;;;;104029;1289;544729;-76
2023/08/21 13:02:18;;;;;;;9.50;6.80;;;;;;;;;;103547;1293;548013;-77
2023/08/21 13:05:49;;;;;;;9.10;5.90;;;;;;;;;;103728;1292;544990;-75
2023/08/21 13:09:27;;;;;;;9.50;7.70;;;;;;;;;;103907;1289;545753;-75
2023/08/21 13:13:04;;;;;;;12.90;8.40;;;;;;;;;;103718;1301;544963;-76
2023/08/21 13:16:41;;;;;;;11.30;8.60;;;;;;;;;;103821;1290;544728;-75
2023/08/21 13:24:41;;;;;;;9.20;6.60;;;;;;;;;;103768;1291;545093;-77
2023/08/21 13:28:20;;;;;;;10.70;7.60;;;;;;;;;;103547;1291;544904;-77
2023/08/21 13:31:56;;;;;;;10.10;7.40;;;;;;;;;;103739;1292;545238;-75
2023/08/21 13:46:05;;;;;;;8.90;6.00;;;;;;;;;;104536;1283;553068;-77
2023/08/21 13:59:16;;;;;;;10.00;5.60;;;;;;;;;;104761;1282;549612;-77
2023/08/21 14:12:31;;;;;;;11.00;6.30;;;;;;;;;;105361;1276;551240;-77
2023/08/21 14:15:23;;;;;;;8.40;5.80;;;;;;;;;;103765;1291;544943;-79
2023/08/21 14:19:00;;;;;;;10.20;6.10;;;;;;;;;;103713;1292;544939;-77
2023/08/21 14:22:37;;;;;;;7.70;5.30;;;;;;;;;;103684;1291;544788;-78
2023/08/21 14:26:16;;;;;;;10.30;5.60;;;;;;;;;;103697;1291;544781;-78
2023/08/21 14:29:53;;;;;;;7.40;4.80;;;;;;;;;;103741;1292;544771;-78
2023/08/21 14:33:30;;;;;;;8.40;5.40;;;;;;;;;;103698;1291;544789;-77
2023/08/21 14:37:15;;;;;;;8.50;5.50;;;;;;;;;;103606;1292;547980;-75
2023/08/21 14:40:52;;;;;;;7.90;5.10;;;;;;;;;;103298;1298;547895;-76
2023/08/21 14:44:23;;;;;;;11.60;6.20;;;;;;;;;;103786;1291;544780;-77
2023/08/21 14:48:00;;;;;;;7.40;5.00;;;;;;;;;;103986;1291;544798;-75
2023/08/21 14:52:12;;;;;;;7.90;5.10;;;;;;;;;;104737;1281;547785;-78
2023/08/21 14:55:15;;;;;;;10.30;4.70;;;;;;;;;;103975;1288;544803;-79
2023/08/21 14:58:58;;;;;;;7.70;4.90;;;;;;;;;;103272;1294;548114;-76
2023/08/21 15:02:36;;;;;;;11.50;6.00;;;;;;;;;;103598;1295;548118;-77
2023/08/21 15:06:07;;;;;;;10.90;6.20;;;;;;;;;;103706;1289;545422;-75
2023/08/21 15:09:45;;;;;;;13.60;7.90;;;;;;;;;;103690;1291;545952;-75
2023/08/21 15:13:23;;;;;;;11.60;5.80;;;;;;;;;;103722;1292;545484;-81
2023/08/21 15:17:06;;;;;;;7.60;4.50;;;;;;;;;;103283;1294;548064;-77
2023/08/21 15:20:37;;;;;;;15.20;11.00;;;;;;;;;;103493;1293;545010;-75
2023/08/21 15:24:21;;;;;;;14.70;10.50;;;;;;;;;;103375;1295;546119;-75
2023/08/21 15:27:52;;;;;;;9.50;6.40;;;;;;;;;;104260;1286;544741;-77
2023/08/21 15:31:30;;;;;;;8.20;5.00;;;;;;;;;;103721;1291;544991;-76
2023/08/21 15:35:13;;;;;;;8.80;4.60;;;;;;;;;;103464;1291;548113;-78
2023/08/21 15:38:45;;;;;;;8.40;4.80;;;;;;;;;;103740;1289;545428;-76
2023/08/21 15:42:22;;;;;;;10.40;7.40;;;;;;;;;;103806;1290;545030;-75
2023/08/21 15:46:05;;;;;;;9.40;5.40;;;;;;;;;;103649;1291;547774;-78
2023/08/21 15:49:37;;;;;;;8.70;4.70;;;;;;;;;;103723;1289;545001;-78
2023/08/21 15:53:14;;;;;;;9.40;5.00;;;;;;;;;;103648;1292;544857;-76
2023/08/21 15:56:52;;;;;;;9.80;5.30;;;;;;;;;;103801;1291;545763;-78
2023/08/21 16:00:29;;;;;;;10.40;4.90;;;;;;;;;;103974;1292;544829;-79
2023/08/21 16:04:12;;;;;;;11.60;4.80;;;;;;;;;;103803;1288;548068;-76
2023/08/21 16:07:45;;;;;;;9.10;4.70;;;;;;;;;;104103;1286;544969;-77
2023/08/21 16:11:22;;;;;;;7.50;4.80;;;;;;;;;;103744;1292;545027;-75
2023/08/21 16:15:00;;;;;;;8.90;5.00;;;;;;;;;;103707;1290;544801;-76
2023/08/21 16:18:42;;;;;;;7.60;3.90;;;;;;;;;;103632;1291;548028;-75
2023/08/21 16:22:14;;;;;;;8.00;4.50;;;;;;;;;;103706;1292;545914;-77
2023/08/21 16:25:48;;;;;;;7.20;3.90;;;;;;;;;;103823;1289;545086;-78
2023/08/21 16:29:31;;;;;;;8.50;4.50;;;;;;;;;;104708;1280;545945;-79
2023/08/21 16:33:13;;;;;;;7.90;5.00;;;;;;;;;;103587;1291;548045;-78
2023/08/21 16:36:45;;;;;;;7.90;4.80;;;;;;;;;;103766;1291;545670;-79
2023/08/21 16:40:25;;;;;;;7.20;4.30;;;;;;;;;;103655;1289;544773;-77
2023/08/21 16:44:01;;;;;;;9.50;4.80;;;;;;;;;;104025;1290;545318;-77
2023/08/21 16:47:37;;;;;;;9.10;4.90;;;;;;;;;;103837;1290;544976;-77
2023/08/21 16:51:21;;;;;;;8.40;4.00;;;;;;;;;;103459;1293;548034;-77
2023/08/21 16:54:52;;;;;;;7.90;3.90;;;;;;;;;;103915;1291;544919;-78
2023/08/21 16:58:35;;;;;;;8.90;4.40;;;;;;;;;;103660;1292;547839;-75
2023/08/21 17:02:07;;;;;;;8.70;4.50;;;;;;;;;;103689;1289;544861;-77
2023/08/21 17:16:06;;;;;;;7.70;3.70;;;;;;;;;;104507;1286;549745;-76
2023/08/21 17:18:58;;;;;;;8.00;4.50;;;;;;;;;;104332;1283;544812;-78
2023/08/21 17:22:32;;;;;;;6.60;3.90;;;;;;;;;;103763;1293;544832;-78
2023/08/21 17:26:20;;;;;;;6.90;4.00;;;;;;;;;;103265;1294;548090;-78
2023/08/21 17:29:52;;;;;;;7.40;4.00;;;;;;;;;;103903;1292;545609;-77
2023/08/21 17:33:37;;;;;;;8.20;3.40;;;;;;;;;;103667;1288;546268;-75
2023/08/21 17:37:07;;;;;;;7.60;4.10;;;;;;;;;;103742;1289;544995;-76
2023/08/21 17:40:44;;;;;;;6.50;4.00;;;;;;;;;;103792;1292;545758;-80
2023/08/21 17:44:22;;;;;;;8.40;4.20;;;;;;;;;;103526;1295;545652;-76
2023/08/21 17:47:59;;;;;;;9.40;4.60;;;;;;;;;;103997;1289;544847;-76
2023/08/21 17:51:37;;;;;;;9.80;4.50;;;;;;;;;;103747;1291;545020;-75
2023/08/21 17:55:20;;;;;;;8.30;3.90;;;;;;;;;;103435;1292;548028;-79
2023/08/21 17:58:52;;;;;;;8.30;4.10;;;;;;;;;;103771;1291;545324;-79
2023/08/21 18:02:29;;;;;;;9.10;3.70;;;;;;;;;;104023;1288;544950;-75
2023/08/21 18:06:07;;;;;;;10.30;3.90;;;;;;;;;;103467;1295;545074;-78
2023/08/21 18:09:44;;;;;;;7.90;3.70;;;;;;;;;;103503;1295;545172;-76
2023/08/21 18:13:22;;;;;;;8.60;4.40;;;;;;;;;;103723;1290;545076;-76
2023/08/21 18:17:03;;;;;;;8.70;4.30;;;;;;;;;;103725;1290;545148;-76
2023/08/21 18:20:51;;;;;;;8.00;4.00;;;;;;;;;;103711;1292;545036;-76
2023/08/21 18:24:19;;;;;;;7.90;4.30;;;;;;;;;;103517;1291;547917;-78
2023/08/21 18:27:51;;;;;;;8.40;4.00;;;;;;;;;;103534;1295;544797;-76
2023/08/21 18:31:36;;;;;;;7.80;4.10;;;;;;;;;;103931;1287;548086;-78
2023/08/21 18:35:06;;;;;;;8.00;4.40;;;;;;;;;;103732;1290;544922;-79
2023/08/21 18:38:44;;;;;;;8.40;4.70;;;;;;;;;;103756;1292;545762;-78
2023/08/21 18:42:27;;;;;;;9.10;4.50;;;;;;;;;;103609;1292;548567;-77
2023/08/21 18:45:58;;;;;;;9.80;4.70;;;;;;;;;;103801;1289;545523;-78
2023/08/21 18:49:36;;;;;;;9.40;4.80;;;;;;;;;;103619;1294;544744;-76
2023/08/21 18:53:19;;;;;;;9.70;4.60;;;;;;;;;;103319;1294;548564;-77
2023/08/21 18:56:51;;;;;;;9.00;4.60;;;;;;;;;;103864;1288;545635;-78
2023/08/21 19:00:28;;;;;;;9.50;4.40;;;;;;;;;;103761;1295;545186;-80
2023/08/21 19:04:12;;;;;;;10.30;5.10;;;;;;;;;;104012;1287;545551;-78
2023/08/21 19:07:49;;;;;;;9.50;5.30;;;;;;;;;;103571;1291;550856;-77
2023/08/21 19:11:24;;;;;;;10.20;4.80;;;;;;;;;;103709;1292;544755;-76
2023/08/21 19:15:04;;;;;;;11.80;6.00;;;;;;;;;;103560;1291;548417;-78
2023/08/21 19:18:36;;;;;;;9.90;6.40;;;;;;;;;;103793;1289;545006;-79
2023/08/21 19:22:24;;;;;;;16.70;7.70;;;;;;;;;;103638;1291;548389;-80
2023/08/21 19:25:56;;;;;;;12.90;6.80;;;;;;;;;;104065;1285;547978;-78
2023/08/21 19:29:34;;;;;;;16.70;8.00;;;;;;;;;;103427;1292;547899;-79
2023/08/21 19:33:12;;;;;;;14.00;7.80;;;;;;;;;;103717;1288;548142;-77
2023/08/21 19:36:49;;;;;;;14.90;8.20;;;;;;;;;;103648;1290;546061;-77
2023/08/21 19:40:27;;;;;;;16.90;8.20;;;;;;;;;;103601;1289;547989;-78
2023/08/21 19:43:58;;;;;;;14.50;8.20;;;;;;;;;;103829;1292;545212;-78
2023/08/21 19:47:37;;;;;;;11.10;5.90;;;;;;;;;;104041;1288;545075;-77
2023/08/21 19:51:18;;;;;;;10.00;5.70;;;;;;;;;;103549;1291;547829;-78
2023/08/21 19:54:56;;;;;;;11.90;5.40;;;;;;;;;;103638;1292;548007;-80
2023/08/21 19:58:33;;;;;;;10.80;5.30;;;;;;;;;;103600;1292;547766;-78
2023/08/21 20:02:11;;;;;;;9.90;5.20;;;;;;;;;;103419;1295;548124;-79
2023/08/21 20:05:49;;;;;;;8.90;4.80;;;;;;;;;;103682;1291;547986;-79
2023/08/21 20:09:27;;;;;;;12.40;5.10;;;;;;;;;;103320;1295;548102;-79
2023/08/21 20:13:03;;;;;;;9.50;4.90;;;;;;;;;;103630;1292;548024;-80
2023/08/21 20:16:35;;;;;;;11.00;5.70;;;;;;;;;;103994;1291;544934;-77
2023/08/21 20:20:18;;;;;;;11.60;5.30;;;;;;;;;;103624;1290;547774;-78
2023/08/21 20:23:56;;;;;;;8.80;5.00;;;;;;;;;;103602;1292;547959;-78
2023/08/21 20:27:34;;;;;;;9.60;5.10;;;;;;;;;;103606;1291;547963;-79
2023/08/21 20:31:11;;;;;;;11.00;6.00;;;;;;;;;;103301;1295;547869;-77
2023/08/21 20:34:49;;;;;;;10.20;5.80;;;;;;;;;;103802;1289;548230;-78
2023/08/21 20:38:26;;;;;;;9.10;5.50;;;;;;;;;;103627;1295;547993;-79
2023/08/21 20:41:58;;;;;;;11.60;5.50;;;;;;;;;;103708;1289;545075;-78
2023/08/21 20:45:37;;;;;;;9.40;5.30;;;;;;;;;;103727;1289;548137;-78
2023/08/21 20:49:18;;;;;;;8.10;4.90;;;;;;;;;;103574;1292;547844;-78
2023/08/21 20:52:55;;;;;;;8.40;5.20;;;;;;;;;;103643;1289;548022;-79
2023/08/21 20:56:33;;;;;;;8.50;4.70;;;;;;;;;;103641;1292;547877;-77
2023/08/21 21:00:08;;;;;;;8.40;5.00;;;;;;;;;;103822;1291;544844;-78
2023/08/21 21:03:48;;;;;;;13.40;5.80;;;;;;;;;;103327;1294;548081;-78
2023/08/21 21:07:26;;;;;;;16.80;6.80;;;;;;;;;;103521;1292;547921;-78
2023/08/21 21:11:03;;;;;;;13.60;6.00;;;;;;;;;;103592;1291;547974;-78
2023/08/21 21:14:35;;;;;;;14.50;6.70;;;;;;;;;;103967;1293;545605;-77
2023/08/21 21:18:18;;;;;;;10.80;6.80;;;;;;;;;;103780;1289;546230;-80
2023/08/21 21:21:50;;;;;;;18.00;7.40;;;;;;;;;;103799;1292;545060;-77
2023/08/21 21:25:26;;;;;;;11.00;7.10;;;;;;;;;;103520;1297;544861;-79
2023/08/21 21:29:04;;;;;;;11.10;6.90;;;;;;;;;;103805;1289;544803;-76
2023/08/21 21:32:46;;;;;;;11.50;7.10;;;;;;;;;;103780;1292;544803;-78
2023/08/21 21:36:30;;;;;;;13.50;6.90;;;;;;;;;;103857;1288;548148;-78
2023/08/21 21:40:04;;;;;;;12.80;6.80;;;;;;;;;;103749;1292;544972;-79